CheckWX is a tool to help pilots better visualize weather data.  It is not intended as a substitute for an official pre-flight weather briefing.

03:17:13 UTC

KCVC METAR
Covington Municipal Airport
Atlanta, Georgia, USA
Current

22 mins ago

KCVC 270255Z AUTO 00000KT 10SM CLR 25/17 A3009 RMK AO2 PNO
Observed
May-27 @ 02:55 UTC
Visibility
10 SM
Flight Rules
VFR
Cloud Levels
  • Clear skies
Temperature
25°C / 77°F
Dewpoint
17°C / 63°F
Humidity
61%
Altimeter
30.09" Hg
Pressure
1018.92 hPa
Previous

42 mins ago

KCVC 270235Z AUTO 00000KT 10SM CLR 25/17 A3009 RMK AO2 PNO
Observed
May-27 @ 02:35 UTC
Visibility
10 SM
Flight Rules
VFR
Cloud Levels
  • Clear skies
Temperature
25°C / 77°F
Dewpoint
17°C / 63°F
Humidity
61%
Altimeter
30.09" Hg
Pressure
1018.92 hPa
Previous

1 hour ago

KCVC 270215Z AUTO 00000KT 10SM CLR 26/17 A3009 RMK AO2 PNO
Observed
May-27 @ 02:15 UTC
Visibility
10 SM
Flight Rules
VFR
Cloud Levels
  • Clear skies
Temperature
26°C / 79°F
Dewpoint
17°C / 63°F
Humidity
58%
Altimeter
30.09" Hg
Pressure
1018.92 hPa